createdAt,value
2022-08-22T00:02:12.470Z,100
2022-08-22T00:07:15.179Z,100
2022-08-22T00:12:17.904Z,100
2022-08-22T00:27:28.375Z,100
2022-08-22T00:32:31.018Z,100
2022-08-22T00:37:33.697Z,100
2022-08-22T00:42:36.355Z,100
2022-08-22T00:47:38.784Z,100
2022-08-22T00:52:41.387Z,100
2022-08-22T00:57:44.256Z,100
2022-08-22T01:02:50.482Z,100
2022-08-22T01:07:49.449Z,100
2022-08-22T01:12:51.805Z,100
2022-08-22T01:17:54.540Z,100
2022-08-22T01:22:57.314Z,100
2022-08-22T01:28:00.204Z,100
2022-08-22T01:33:02.823Z,100
2022-08-22T01:38:05.537Z,100
2022-08-22T01:48:10.945Z,100
2022-08-22T01:58:16.509Z,100
2022-08-22T02:03:19.255Z,100
2022-08-22T02:08:22.117Z,100
2022-08-22T02:13:24.555Z,100
2022-08-22T02:18:27.231Z,100
2022-08-22T02:23:29.906Z,100
2022-08-22T02:28:35.296Z,100
2022-08-22T02:33:38.075Z,100
2022-08-22T02:43:43.457Z,100
2022-08-22T02:48:46.124Z,100
2022-08-22T02:53:48.708Z,100
2022-08-22T02:58:59.325Z,100
2022-08-22T03:03:59.995Z,100
2022-08-22T03:14:05.142Z,100
2022-08-22T03:19:07.911Z,100
2022-08-22T03:24:13.186Z,100
2022-08-22T03:29:16.031Z,100
2022-08-22T03:34:18.843Z,100
2022-08-22T03:39:21.559Z,100
2022-08-22T03:44:26.812Z,100
2022-08-22T03:49:29.393Z,100
2022-08-22T03:54:34.795Z,100
2022-08-22T03:59:42.481Z,100
2022-08-22T04:04:42.842Z,100
2022-08-22T04:09:45.305Z,100
2022-08-22T04:14:47.863Z,100
2022-08-22T04:19:50.719Z,100
2022-08-22T04:24:53.628Z,100
2022-08-22T04:29:56.835Z,100
2022-08-22T04:34:59.518Z,100
2022-08-22T04:40:02.211Z,100
2022-08-22T04:45:05.038Z,100
2022-08-22T04:50:07.865Z,100
2022-08-22T04:55:10.829Z,100
2022-08-22T05:00:13.331Z,100
2022-08-22T05:10:18.770Z,100
2022-08-22T05:15:23.014Z,100
2022-08-22T05:20:24.094Z,100
2022-08-22T05:30:29.496Z,100
2022-08-22T05:40:34.979Z,100
2022-08-22T05:50:40.311Z,100
2022-08-22T06:00:46.121Z,100
2022-08-22T06:05:49.279Z,100
2022-08-22T06:11:32.724Z,100
2022-08-22T06:21:37.674Z,100
2022-08-22T06:26:39.939Z,100
2022-08-22T06:31:43.024Z,100
2022-08-22T06:36:45.738Z,100
2022-08-22T06:41:48.519Z,100
2022-08-22T06:56:56.533Z,100
2022-08-22T07:01:59.463Z,100
2022-08-22T07:07:02.071Z,100
2022-08-22T07:22:13.003Z,100
2022-08-22T07:27:15.870Z,100
2022-08-22T07:32:18.498Z,100
2022-08-22T07:37:21.375Z,100
2022-08-22T07:42:26.579Z,100
2022-08-22T07:47:26.882Z,100
2022-08-22T07:57:32.261Z,100
2022-08-22T08:02:34.931Z,100
2022-08-22T08:07:37.653Z,100
2022-08-22T08:12:40.273Z,100
2022-08-22T08:17:42.769Z,100
2022-08-22T08:27:50.377Z,100
2022-08-22T08:37:53.842Z,99.27832
2022-08-22T08:42:56.475Z,100
2022-08-22T08:47:59.490Z,98.66895
2022-08-22T08:53:01.882Z,99.87207
2022-08-22T09:08:11.691Z,95.19434
2022-08-22T09:13:13.007Z,92.58398
2022-08-22T09:18:18.088Z,92.48047
2022-08-22T09:23:18.051Z,88.91113
2022-08-22T09:28:20.611Z,90.4082
2022-08-22T09:33:23.014Z,89.31152
2022-08-22T09:38:28.339Z,86.25195
2022-08-22T09:43:33.663Z,88.49316
2022-08-22T09:48:33.959Z,87.05371
2022-08-22T09:53:36.750Z,83.4209
2022-08-22T09:58:41.673Z,84.23047
2022-08-22T10:03:42.046Z,85.35059
2022-08-22T10:13:48.059Z,77.32227
2022-08-22T10:18:52.922Z,84.25977
2022-08-22T10:23:53.350Z,84.51465
2022-08-22T10:28:55.786Z,82.26172
2022-08-22T10:33:58.256Z,83.80273
2022-08-22T10:39:01.439Z,82.80859
2022-08-22T10:44:04.087Z,83.37695
2022-08-22T10:54:08.720Z,77.46387
2022-08-22T10:59:11.517Z,75.59961
2022-08-22T11:09:16.801Z,69.96777
2022-08-22T11:14:19.601Z,72.34082
2022-08-22T11:24:35.052Z,68.4834
2022-08-22T11:29:27.791Z,64.18555
2022-08-22T11:34:30.252Z,65.73828
2022-08-22T11:49:38.213Z,72.90625
2022-08-22T11:54:42.170Z,69.15234
2022-08-22T11:59:43.896Z,70.24902
2022-08-22T12:04:46.534Z,73.0127
2022-08-22T12:14:52.247Z,66.88477
2022-08-22T12:20:14.958Z,70.90918
2022-08-22T12:25:37.327Z,67.45996
2022-08-22T12:30:40.357Z,67.88965
2022-08-22T12:35:43.207Z,68.97168
2022-08-22T12:40:45.680Z,67.17188
2022-08-22T12:45:50.701Z,67.52344
2022-08-22T12:50:51.549Z,73.3584
2022-08-22T12:55:54.129Z,69.82617
2022-08-22T13:00:56.762Z,69.90918
2022-08-22T13:21:10.410Z,67.48535
2022-08-22T13:26:10.241Z,67.48535
2022-08-22T13:31:13.181Z,68.48633
2022-08-22T13:36:15.583Z,68.2793
2022-08-22T13:46:21.332Z,69.78516
2022-08-22T13:51:24.155Z,71.72363
2022-08-22T13:56:26.912Z,71.87305
2022-08-22T14:01:29.713Z,74.11328
2022-08-22T14:06:38.220Z,74.74902
2022-08-22T14:11:35.233Z,79.11914
2022-08-22T14:21:49.490Z,76.82129
2022-08-22T14:26:51.815Z,72.99121
2022-08-22T14:31:54.646Z,73.98828
2022-08-22T14:37:02.148Z,77.71387
2022-08-22T14:42:09.885Z,82.00391
2022-08-22T14:47:15.840Z,82.4248
2022-08-22T14:52:19.384Z,84.31543
2022-08-22T15:02:18.604Z,80.12695
2022-08-22T15:12:23.729Z,83.62402
2022-08-22T15:17:26.345Z,84.73438
2022-08-22T15:22:34.080Z,85.65723
2022-08-22T15:27:36.787Z,89.04004
2022-08-22T15:32:39.822Z,87.45313
2022-08-22T15:37:41.804Z,88.52148
2022-08-22T15:42:44.448Z,88.15137
2022-08-22T15:47:46.999Z,89.00684
2022-08-22T15:52:59.712Z,88.91211
2022-08-22T15:57:52.300Z,87.41992
2022-08-22T16:02:55.118Z,90.59766
2022-08-22T16:07:57.785Z,91.22656
2022-08-22T16:13:03.153Z,92.82227
2022-08-22T16:18:06.035Z,92.57617
2022-08-22T16:23:08.489Z,94.11328
2022-08-22T16:28:11.032Z,93.05859
2022-08-22T16:33:18.111Z,91.90039
2022-08-22T16:38:16.541Z,94.51758
2022-08-22T16:43:19.294Z,96.57227
2022-08-22T16:48:21.783Z,98.08789
2022-08-22T16:58:35.788Z,98.57129
2022-08-22T17:03:29.464Z,98.54492
2022-08-22T17:08:32.124Z,100
2022-08-22T17:13:34.826Z,100
2022-08-22T17:18:37.441Z,99.56348
2022-08-22T17:28:42.691Z,99.35059
2022-08-22T17:33:47.831Z,100
2022-08-22T17:38:47.898Z,100
2022-08-22T17:53:58.690Z,100
2022-08-22T17:59:01.270Z,100
2022-08-22T18:04:04.104Z,100
2022-08-22T18:14:09.226Z,100
2022-08-22T18:19:11.768Z,100
2022-08-22T18:29:17.428Z,100
2022-08-22T18:34:20.047Z,100
2022-08-22T18:44:25.511Z,100
2022-08-22T18:49:28.159Z,100
2022-08-22T18:54:33.492Z,100
2022-08-22T18:59:36.343Z,100
2022-08-22T19:04:38.909Z,100
2022-08-22T19:14:46.810Z,100
2022-08-22T19:19:49.441Z,100
2022-08-22T19:25:09.761Z,100
2022-08-22T19:30:12.638Z,100
2022-08-22T19:40:20.656Z,100
2022-08-22T19:50:26.124Z,100
2022-08-22T19:55:28.950Z,100
2022-08-22T20:00:31.719Z,100
2022-08-22T20:05:34.200Z,100
2022-08-22T20:10:36.999Z,100
2022-08-22T20:15:39.802Z,100
2022-08-22T20:20:42.159Z,100
2022-08-22T20:25:48.056Z,100
2022-08-22T20:30:51.116Z,100
2022-08-22T20:35:53.735Z,100
2022-08-22T20:41:00.501Z,100
2022-08-22T20:51:05.018Z,100
2022-08-22T20:56:07.838Z,100
2022-08-22T21:01:10.803Z,100
2022-08-22T21:06:13.476Z,100
2022-08-22T21:11:16.068Z,100
2022-08-22T21:16:26.962Z,100
2022-08-22T21:26:29.549Z,100
2022-08-22T21:36:34.955Z,100
2022-08-22T21:41:40.225Z,100
2022-08-22T21:46:42.707Z,100
2022-08-22T22:01:50.898Z,100
2022-08-22T22:11:56.318Z,100
2022-08-22T22:22:01.799Z,100
2022-08-22T22:27:04.457Z,100
2022-08-22T22:32:06.950Z,100
2022-08-22T22:37:09.787Z,100
2022-08-22T22:42:15.520Z,100
2022-08-22T22:47:18.334Z,100
2022-08-22T22:52:21.027Z,100
2022-08-22T22:57:25.501Z,100
2022-08-22T23:02:26.871Z,100
2022-08-22T23:07:29.544Z,100
2022-08-22T23:12:32.136Z,100
2022-08-22T23:17:34.697Z,100
2022-08-22T23:22:37.432Z,100
2022-08-22T23:42:51.053Z,100
2022-08-22T23:48:33.550Z,100
2022-08-22T23:53:36.601Z,100
